sensor_id;sensor_type;location;lat;lon;timestamp;temperature;humidity
8988;DHT22;4529;51.360;12.474;2023-06-14T00:02:55;15.30;99.90
8988;DHT22;4529;51.360;12.474;2023-06-14T00:07:58;15.20;99.90
8988;DHT22;4529;51.360;12.474;2023-06-14T00:13:08;15.10;99.90
8988;DHT22;4529;51.360;12.474;2023-06-14T00:18:11;15.10;99.90
8988;DHT22;4529;51.360;12.474;2023-06-14T00:23:15;15.00;99.90
8988;DHT22;4529;51.360;12.474;2023-06-14T00:28:19;15.00;99.90
8988;DHT22;4529;51.360;12.474;2023-06-14T00:33:23;15.00;99.90
8988;DHT22;4529;51.360;12.474;2023-06-14T00:38:27;15.00;99.90
8988;DHT22;4529;51.360;12.474;2023-06-14T00:43:31;14.90;99.90
8988;DHT22;4529;51.360;12.474;2023-06-14T00:48:36;14.90;99.90
8988;DHT22;4529;51.360;12.474;2023-06-14T00:53:39;14.80;99.90
8988;DHT22;4529;51.360;12.474;2023-06-14T00:58:44;14.70;99.90
8988;DHT22;4529;51.360;12.474;2023-06-14T01:03:48;14.70;99.90
8988;DHT22;4529;51.360;12.474;2023-06-14T01:09:03;14.60;99.90
8988;DHT22;4529;51.360;12.474;2023-06-14T01:14:04;14.60;99.90
8988;DHT22;4529;51.360;12.474;2023-06-14T01:19:08;14.60;99.90
8988;DHT22;4529;51.360;12.474;2023-06-14T01:24:11;14.50;99.90
8988;DHT22;4529;51.360;12.474;2023-06-14T01:29:14;14.50;99.90
8988;DHT22;4529;51.360;12.474;2023-06-14T01:34:18;14.50;99.90
8988;DHT22;4529;51.360;12.474;2023-06-14T01:39:21;14.40;99.90
8988;DHT22;4529;51.360;12.474;2023-06-14T01:44:25;14.40;99.90
8988;DHT22;4529;51.360;12.474;2023-06-14T01:49:28;14.40;99.90
8988;DHT22;4529;51.360;12.474;2023-06-14T01:54:32;14.30;99.90
8988;DHT22;4529;51.360;12.474;2023-06-14T01:59:35;14.30;99.90
8988;DHT22;4529;51.360;12.474;2023-06-14T02:04:39;14.30;99.90
8988;DHT22;4529;51.360;12.474;2023-06-14T02:09:42;14.30;99.90
8988;DHT22;4529;51.360;12.474;2023-06-14T02:14:46;14.20;99.90
8988;DHT22;4529;51.360;12.474;2023-06-14T02:19:49;14.20;99.90
8988;DHT22;4529;51.360;12.474;2023-06-14T02:24:53;14.10;99.90
8988;DHT22;4529;51.360;12.474;2023-06-14T02:29:56;14.10;99.90
8988;DHT22;4529;51.360;12.474;2023-06-14T02:34:59;14.00;99.90
8988;DHT22;4529;51.360;12.474;2023-06-14T02:40:03;14.00;99.90
8988;DHT22;4529;51.360;12.474;2023-06-14T02:45:07;14.00;99.90
8988;DHT22;4529;51.360;12.474;2023-06-14T02:50:10;13.90;99.90
8988;DHT22;4529;51.360;12.474;2023-06-14T02:55:14;13.90;99.90
8988;DHT22;4529;51.360;12.474;2023-06-14T03:00:17;13.80;99.90
8988;DHT22;4529;51.360;12.474;2023-06-14T03:05:21;13.80;99.90
8988;DHT22;4529;51.360;12.474;2023-06-14T03:10:24;13.70;99.90
8988;DHT22;4529;51.360;12.474;2023-06-14T03:15:28;13.70;99.90
8988;DHT22;4529;51.360;12.474;2023-06-14T03:20:31;13.70;99.90
8988;DHT22;4529;51.360;12.474;2023-06-14T03:25:34;13.70;99.90
8988;DHT22;4529;51.360;12.474;2023-06-14T03:30:38;13.70;99.90
8988;DHT22;4529;51.360;12.474;2023-06-14T03:35:41;13.70;99.90
8988;DHT22;4529;51.360;12.474;2023-06-14T03:40:45;13.70;99.90
8988;DHT22;4529;51.360;12.474;2023-06-14T03:45:48;13.70;99.90
8988;DHT22;4529;51.360;12.474;2023-06-14T03:50:52;13.60;99.90
8988;DHT22;4529;51.360;12.474;2023-06-14T03:55:55;13.70;99.90
8988;DHT22;4529;51.360;12.474;2023-06-14T04:00:59;13.70;99.90
8988;DHT22;4529;51.360;12.474;2023-06-14T04:06:02;13.30;99.90
8988;DHT22;4529;51.360;12.474;2023-06-14T04:11:06;13.20;99.90
8988;DHT22;4529;51.360;12.474;2023-06-14T04:16:09;13.20;99.90
8988;DHT22;4529;51.360;12.474;2023-06-14T04:21:13;13.20;99.90
8988;DHT22;4529;51.360;12.474;2023-06-14T04:26:16;13.20;99.90
8988;DHT22;4529;51.360;12.474;2023-06-14T04:31:19;13.30;99.90
8988;DHT22;4529;51.360;12.474;2023-06-14T04:36:23;13.50;99.90
8988;DHT22;4529;51.360;12.474;2023-06-14T04:41:31;13.70;99.90
8988;DHT22;4529;51.360;12.474;2023-06-14T04:46:35;13.80;99.90
8988;DHT22;4529;51.360;12.474;2023-06-14T04:51:38;13.90;99.90
8988;DHT22;4529;51.360;12.474;2023-06-14T04:56:42;14.10;99.90
8988;DHT22;4529;51.360;12.474;2023-06-14T05:01:45;14.30;99.90
8988;DHT22;4529;51.360;12.474;2023-06-14T05:06:49;14.40;99.90
8988;DHT22;4529;51.360;12.474;2023-06-14T05:11:52;14.60;99.90
8988;DHT22;4529;51.360;12.474;2023-06-14T05:16:56;14.80;99.90
8988;DHT22;4529;51.360;12.474;2023-06-14T05:21:59;14.90;99.90
8988;DHT22;4529;51.360;12.474;2023-06-14T05:27:02;15.00;99.90
8988;DHT22;4529;51.360;12.474;2023-06-14T05:32:06;15.20;99.90
8988;DHT22;4529;51.360;12.474;2023-06-14T05:37:09;15.20;99.90
8988;DHT22;4529;51.360;12.474;2023-06-14T05:42:13;15.40;99.90
8988;DHT22;4529;51.360;12.474;2023-06-14T05:47:16;15.40;99.90
8988;DHT22;4529;51.360;12.474;2023-06-14T05:52:20;15.60;99.90
8988;DHT22;4529;51.360;12.474;2023-06-14T05:57:23;15.70;99.90
8988;DHT22;4529;51.360;12.474;2023-06-14T06:02:27;16.00;99.90
8988;DHT22;4529;51.360;12.474;2023-06-14T06:07:30;16.10;99.90
8988;DHT22;4529;51.360;12.474;2023-06-14T06:12:34;16.40;99.90
8988;DHT22;4529;51.360;12.474;2023-06-14T06:17:37;16.50;99.90
8988;DHT22;4529;51.360;12.474;2023-06-14T06:22:41;16.60;99.90
8988;DHT22;4529;51.360;12.474;2023-06-14T06:27:44;16.80;99.90
8988;DHT22;4529;51.360;12.474;2023-06-14T06:32:48;17.10;99.90
8988;DHT22;4529;51.360;12.474;2023-06-14T06:37:51;17.20;99.90
8988;DHT22;4529;51.360;12.474;2023-06-14T06:42:54;17.30;99.90
8988;DHT22;4529;51.360;12.474;2023-06-14T06:47:58;17.30;99.90
8988;DHT22;4529;51.360;12.474;2023-06-14T06:53:01;17.70;99.90
8988;DHT22;4529;51.360;12.474;2023-06-14T06:58:05;17.90;99.90
8988;DHT22;4529;51.360;12.474;2023-06-14T07:03:08;17.70;99.90
8988;DHT22;4529;51.360;12.474;2023-06-14T07:08:12;18.10;99.90
8988;DHT22;4529;51.360;12.474;2023-06-14T07:13:15;18.40;99.90
8988;DHT22;4529;51.360;12.474;2023-06-14T07:18:19;18.40;99.90
8988;DHT22;4529;51.360;12.474;2023-06-14T07:23:23;18.90;99.90
8988;DHT22;4529;51.360;12.474;2023-06-14T07:28:26;18.90;99.90
8988;DHT22;4529;51.360;12.474;2023-06-14T07:33:29;18.70;99.90
8988;DHT22;4529;51.360;12.474;2023-06-14T07:38:33;19.30;99.90
8988;DHT22;4529;51.360;12.474;2023-06-14T07:43:41;19.70;99.90
8988;DHT22;4529;51.360;12.474;2023-06-14T07:48:44;19.60;99.90
8988;DHT22;4529;51.360;12.474;2023-06-14T07:53:48;19.60;99.90
8988;DHT22;4529;51.360;12.474;2023-06-14T07:58:51;19.60;99.90
8988;DHT22;4529;51.360;12.474;2023-06-14T08:03:55;19.80;99.90
8988;DHT22;4529;51.360;12.474;2023-06-14T08:09:01;20.20;99.90
8988;DHT22;4529;51.360;12.474;2023-06-14T08:14:05;20.40;99.90
8988;DHT22;4529;51.360;12.474;2023-06-14T08:19:09;20.70;99.90
8988;DHT22;4529;51.360;12.474;2023-06-14T08:24:13;20.80;99.90
8988;DHT22;4529;51.360;12.474;2023-06-14T08:29:18;20.60;99.90
8988;DHT22;4529;51.360;12.474;2023-06-14T08:34:22;20.60;99.90
8988;DHT22;4529;51.360;12.474;2023-06-14T08:39:26;20.70;99.90
8988;DHT22;4529;51.360;12.474;2023-06-14T08:44:30;20.70;99.90
8988;DHT22;4529;51.360;12.474;2023-06-14T08:49:34;20.90;99.90
8988;DHT22;4529;51.360;12.474;2023-06-14T08:54:38;21.00;99.90
8988;DHT22;4529;51.360;12.474;2023-06-14T08:59:45;21.00;99.90
8988;DHT22;4529;51.360;12.474;2023-06-14T09:04:47;21.30;99.90
8988;DHT22;4529;51.360;12.474;2023-06-14T09:10:04;21.20;99.90
8988;DHT22;4529;51.360;12.474;2023-06-14T09:14:54;21.10;99.90
8988;DHT22;4529;51.360;12.474;2023-06-14T09:19:58;20.90;99.90
8988;DHT22;4529;51.360;12.474;2023-06-14T09:25:01;20.90;99.90
8988;DHT22;4529;51.360;12.474;2023-06-14T09:30:05;21.10;99.90
8988;DHT22;4529;51.360;12.474;2023-06-14T09:35:08;21.40;99.90
8988;DHT22;4529;51.360;12.474;2023-06-14T09:40:12;21.10;99.90
8988;DHT22;4529;51.360;12.474;2023-06-14T09:45:15;21.00;99.90
8988;DHT22;4529;51.360;12.474;2023-06-14T09:50:19;21.00;99.90
8988;DHT22;4529;51.360;12.474;2023-06-14T09:55:22;21.00;99.90
8988;DHT22;4529;51.360;12.474;2023-06-14T10:00:26;21.10;99.00
8988;DHT22;4529;51.360;12.474;2023-06-14T10:05:29;20.80;99.20
8988;DHT22;4529;51.360;12.474;2023-06-14T10:10:35;20.70;98.80
8988;DHT22;4529;51.360;12.474;2023-06-14T10:21:33;20.80;99.90
8988;DHT22;4529;51.360;12.474;2023-06-14T10:26:40;21.10;99.90
8988;DHT22;4529;51.360;12.474;2023-06-14T10:31:45;21.10;99.90
8988;DHT22;4529;51.360;12.474;2023-06-14T10:36:50;21.30;99.90
8988;DHT22;4529;51.360;12.474;2023-06-14T10:41:55;21.50;99.00
8988;DHT22;4529;51.360;12.474;2023-06-14T10:47:01;21.50;99.90
8988;DHT22;4529;51.360;12.474;2023-06-14T10:52:05;21.50;99.90
8988;DHT22;4529;51.360;12.474;2023-06-14T10:57:08;21.40;99.80
8988;DHT22;4529;51.360;12.474;2023-06-14T11:02:42;21.40;99.90
8988;DHT22;4529;51.360;12.474;2023-06-14T11:08:26;21.40;99.90
8988;DHT22;4529;51.360;12.474;2023-06-14T11:13:27;21.40;99.60
8988;DHT22;4529;51.360;12.474;2023-06-14T11:18:31;21.40;99.60
8988;DHT22;4529;51.360;12.474;2023-06-14T11:23:35;21.30;99.90
8988;DHT22;4529;51.360;12.474;2023-06-14T11:28:38;21.60;99.90
8988;DHT22;4529;51.360;12.474;2023-06-14T11:33:41;21.40;99.70
8988;DHT22;4529;51.360;12.474;2023-06-14T11:38:44;21.40;98.70
8988;DHT22;4529;51.360;12.474;2023-06-14T11:43:48;21.60;98.20
8988;DHT22;4529;51.360;12.474;2023-06-14T11:48:52;21.90;98.90
8988;DHT22;4529;51.360;12.474;2023-06-14T11:53:56;22.10;99.70
8988;DHT22;4529;51.360;12.474;2023-06-14T11:59:02;22.10;99.90
8988;DHT22;4529;51.360;12.474;2023-06-14T12:04:05;22.00;98.20
8988;DHT22;4529;51.360;12.474;2023-06-14T12:09:09;22.10;99.90
8988;DHT22;4529;51.360;12.474;2023-06-14T12:14:13;22.10;99.00
8988;DHT22;4529;51.360;12.474;2023-06-14T12:19:17;21.90;98.40
8988;DHT22;4529;51.360;12.474;2023-06-14T12:24:21;21.80;98.90
8988;DHT22;4529;51.360;12.474;2023-06-14T12:29:25;21.70;99.90
8988;DHT22;4529;51.360;12.474;2023-06-14T12:34:29;21.70;99.90
8988;DHT22;4529;51.360;12.474;2023-06-14T12:39:34;21.70;99.90
8988;DHT22;4529;51.360;12.474;2023-06-14T12:44:38;21.70;99.90
8988;DHT22;4529;51.360;12.474;2023-06-14T12:49:42;21.60;99.90
8988;DHT22;4529;51.360;12.474;2023-06-14T12:54:46;21.50;99.90
8988;DHT22;4529;51.360;12.474;2023-06-14T12:59:50;21.50;99.90
8988;DHT22;4529;51.360;12.474;2023-06-14T13:04:54;21.50;99.90
8988;DHT22;4529;51.360;12.474;2023-06-14T13:09:58;21.40;99.90
8988;DHT22;4529;51.360;12.474;2023-06-14T13:15:01;21.50;99.90
8988;DHT22;4529;51.360;12.474;2023-06-14T13:20:08;21.40;99.90
8988;DHT22;4529;51.360;12.474;2023-06-14T13:25:11;21.40;99.90
8988;DHT22;4529;51.360;12.474;2023-06-14T13:30:15;21.50;99.90
8988;DHT22;4529;51.360;12.474;2023-06-14T13:35:19;21.50;99.90
8988;DHT22;4529;51.360;12.474;2023-06-14T13:40:23;21.40;99.90
8988;DHT22;4529;51.360;12.474;2023-06-14T13:45:27;21.40;99.90
8988;DHT22;4529;51.360;12.474;2023-06-14T13:50:32;21.30;99.90
8988;DHT22;4529;51.360;12.474;2023-06-14T13:55:36;21.20;99.90
8988;DHT22;4529;51.360;12.474;2023-06-14T14:00:40;21.20;99.90
8988;DHT22;4529;51.360;12.474;2023-06-14T14:05:44;21.30;99.90
8988;DHT22;4529;51.360;12.474;2023-06-14T14:10:48;21.60;99.90
8988;DHT22;4529;51.360;12.474;2023-06-14T14:15:52;21.70;99.90
8988;DHT22;4529;51.360;12.474;2023-06-14T14:20:56;21.70;99.90
8988;DHT22;4529;51.360;12.474;2023-06-14T14:26:00;21.70;99.90
8988;DHT22;4529;51.360;12.474;2023-06-14T14:31:03;21.80;99.90
8988;DHT22;4529;51.360;12.474;2023-06-14T14:36:07;21.70;99.90
8988;DHT22;4529;51.360;12.474;2023-06-14T14:41:11;21.70;99.90
8988;DHT22;4529;51.360;12.474;2023-06-14T14:46:15;21.80;99.90
8988;DHT22;4529;51.360;12.474;2023-06-14T14:51:19;21.60;99.90
8988;DHT22;4529;51.360;12.474;2023-06-14T14:56:23;21.50;99.90
8988;DHT22;4529;51.360;12.474;2023-06-14T15:01:28;21.50;99.90
8988;DHT22;4529;51.360;12.474;2023-06-14T15:06:32;21.70;99.90
8988;DHT22;4529;51.360;12.474;2023-06-14T15:11:39;21.80;99.90
8988;DHT22;4529;51.360;12.474;2023-06-14T15:16:42;21.70;99.90
8988;DHT22;4529;51.360;12.474;2023-06-14T15:21:46;21.80;99.90
8988;DHT22;4529;51.360;12.474;2023-06-14T15:26:49;21.90;99.90
8988;DHT22;4529;51.360;12.474;2023-06-14T15:31:53;21.70;99.90
8988;DHT22;4529;51.360;12.474;2023-06-14T15:36:56;21.60;99.90
8988;DHT22;4529;51.360;12.474;2023-06-14T15:42:00;21.60;99.90
8988;DHT22;4529;51.360;12.474;2023-06-14T15:47:04;21.60;99.90
8988;DHT22;4529;51.360;12.474;2023-06-14T15:52:07;21.50;99.90
8988;DHT22;4529;51.360;12.474;2023-06-14T15:57:10;21.40;99.90
8988;DHT22;4529;51.360;12.474;2023-06-14T16:02:14;21.50;99.90
8988;DHT22;4529;51.360;12.474;2023-06-14T16:07:17;21.40;99.90
8988;DHT22;4529;51.360;12.474;2023-06-14T16:12:21;21.40;99.90
8988;DHT22;4529;51.360;12.474;2023-06-14T16:17:24;21.30;99.90
8988;DHT22;4529;51.360;12.474;2023-06-14T16:22:28;21.50;99.90
8988;DHT22;4529;51.360;12.474;2023-06-14T16:27:32;21.50;99.90
8988;DHT22;4529;51.360;12.474;2023-06-14T16:32:35;21.50;99.90
8988;DHT22;4529;51.360;12.474;2023-06-14T16:37:39;21.60;99.90
8988;DHT22;4529;51.360;12.474;2023-06-14T16:42:42;21.70;99.90
8988;DHT22;4529;51.360;12.474;2023-06-14T16:47:46;21.70;99.90
8988;DHT22;4529;51.360;12.474;2023-06-14T16:52:49;21.70;99.90
8988;DHT22;4529;51.360;12.474;2023-06-14T16:57:53;21.80;99.90
8988;DHT22;4529;51.360;12.474;2023-06-14T17:02:56;21.70;99.90
8988;DHT22;4529;51.360;12.474;2023-06-14T17:08:00;21.80;99.90
8988;DHT22;4529;51.360;12.474;2023-06-14T17:13:03;21.70;99.90
8988;DHT22;4529;51.360;12.474;2023-06-14T17:18:07;21.60;99.90
8988;DHT22;4529;51.360;12.474;2023-06-14T17:23:10;21.70;99.90
8988;DHT22;4529;51.360;12.474;2023-06-14T17:28:13;21.70;99.90
8988;DHT22;4529;51.360;12.474;2023-06-14T17:33:17;21.80;99.90
8988;DHT22;4529;51.360;12.474;2023-06-14T17:38:20;21.70;99.90
8988;DHT22;4529;51.360;12.474;2023-06-14T17:43:24;21.60;99.90
8988;DHT22;4529;51.360;12.474;2023-06-14T17:48:27;21.60;99.90
8988;DHT22;4529;51.360;12.474;2023-06-14T17:53:31;21.40;99.90
8988;DHT22;4529;51.360;12.474;2023-06-14T17:58:34;21.30;99.90
8988;DHT22;4529;51.360;12.474;2023-06-14T18:03:38;21.20;99.90
8988;DHT22;4529;51.360;12.474;2023-06-14T18:08:41;21.00;99.90
8988;DHT22;4529;51.360;12.474;2023-06-14T18:13:45;20.90;99.90
8988;DHT22;4529;51.360;12.474;2023-06-14T18:18:48;20.90;99.90
8988;DHT22;4529;51.360;12.474;2023-06-14T18:23:52;20.80;99.90
8988;DHT22;4529;51.360;12.474;2023-06-14T18:28:55;20.90;99.90
8988;DHT22;4529;51.360;12.474;2023-06-14T18:33:58;20.90;99.90
8988;DHT22;4529;51.360;12.474;2023-06-14T18:39:02;20.80;99.90
8988;DHT22;4529;51.360;12.474;2023-06-14T18:44:05;20.70;99.90
8988;DHT22;4529;51.360;12.474;2023-06-14T18:49:09;20.70;99.90
8988;DHT22;4529;51.360;12.474;2023-06-14T18:54:12;20.60;99.90
8988;DHT22;4529;51.360;12.474;2023-06-14T18:59:16;20.50;99.90
8988;DHT22;4529;51.360;12.474;2023-06-14T19:04:19;20.40;99.90
8988;DHT22;4529;51.360;12.474;2023-06-14T19:09:23;20.30;99.90
8988;DHT22;4529;51.360;12.474;2023-06-14T19:14:26;20.20;99.90
8988;DHT22;4529;51.360;12.474;2023-06-14T19:19:30;20.00;99.90
8988;DHT22;4529;51.360;12.474;2023-06-14T19:24:33;19.80;99.90
8988;DHT22;4529;51.360;12.474;2023-06-14T19:29:37;19.60;99.90
8988;DHT22;4529;51.360;12.474;2023-06-14T19:34:40;19.50;99.90
8988;DHT22;4529;51.360;12.474;2023-06-14T19:39:44;19.30;99.90
8988;DHT22;4529;51.360;12.474;2023-06-14T19:44:47;19.20;99.90
8988;DHT22;4529;51.360;12.474;2023-06-14T19:49:51;19.00;99.90
8988;DHT22;4529;51.360;12.474;2023-06-14T19:54:54;18.90;99.90
8988;DHT22;4529;51.360;12.474;2023-06-14T19:59:57;18.70;99.90
8988;DHT22;4529;51.360;12.474;2023-06-14T20:05:01;18.50;99.90
8988;DHT22;4529;51.360;12.474;2023-06-14T20:10:04;18.40;99.90
8988;DHT22;4529;51.360;12.474;2023-06-14T20:15:08;18.30;99.90
8988;DHT22;4529;51.360;12.474;2023-06-14T20:20:12;18.00;99.90
8988;DHT22;4529;51.360;12.474;2023-06-14T20:25:16;17.90;99.90
8988;DHT22;4529;51.360;12.474;2023-06-14T20:30:20;17.80;99.90
8988;DHT22;4529;51.360;12.474;2023-06-14T20:35:24;17.70;99.90
8988;DHT22;4529;51.360;12.474;2023-06-14T20:40:28;17.70;99.90
8988;DHT22;4529;51.360;12.474;2023-06-14T20:45:31;17.60;99.90
8988;DHT22;4529;51.360;12.474;2023-06-14T20:50:35;17.50;99.90
8988;DHT22;4529;51.360;12.474;2023-06-14T20:55:39;17.50;99.90
8988;DHT22;4529;51.360;12.474;2023-06-14T21:00:43;17.50;99.90
8988;DHT22;4529;51.360;12.474;2023-06-14T21:05:46;17.60;99.90
8988;DHT22;4529;51.360;12.474;2023-06-14T21:10:50;17.80;99.90
8988;DHT22;4529;51.360;12.474;2023-06-14T21:15:53;17.80;99.90
8988;DHT22;4529;51.360;12.474;2023-06-14T21:20:56;17.90;99.90
8988;DHT22;4529;51.360;12.474;2023-06-14T21:26:00;18.00;99.90
8988;DHT22;4529;51.360;12.474;2023-06-14T21:31:07;18.00;99.90
8988;DHT22;4529;51.360;12.474;2023-06-14T21:36:10;18.00;99.90
8988;DHT22;4529;51.360;12.474;2023-06-14T21:41:13;17.90;99.90
8988;DHT22;4529;51.360;12.474;2023-06-14T21:46:17;17.80;99.90
8988;DHT22;4529;51.360;12.474;2023-06-14T21:51:20;17.70;99.90
8988;DHT22;4529;51.360;12.474;2023-06-14T21:56:24;17.60;99.90
8988;DHT22;4529;51.360;12.474;2023-06-14T22:01:27;17.40;99.90
8988;DHT22;4529;51.360;12.474;2023-06-14T22:06:31;17.20;99.90
8988;DHT22;4529;51.360;12.474;2023-06-14T22:11:34;17.10;99.90
8988;DHT22;4529;51.360;12.474;2023-06-14T22:16:38;16.90;99.90
8988;DHT22;4529;51.360;12.474;2023-06-14T22:21:41;16.80;99.90
8988;DHT22;4529;51.360;12.474;2023-06-14T22:26:45;16.60;99.90
8988;DHT22;4529;51.360;12.474;2023-06-14T22:31:48;16.50;99.90
8988;DHT22;4529;51.360;12.474;2023-06-14T22:36:52;16.40;99.90
8988;DHT22;4529;51.360;12.474;2023-06-14T22:41:55;16.30;99.90
8988;DHT22;4529;51.360;12.474;2023-06-14T22:46:59;16.30;99.90
8988;DHT22;4529;51.360;12.474;2023-06-14T22:52:02;16.30;99.90
8988;DHT22;4529;51.360;12.474;2023-06-14T22:57:05;16.30;99.90
8988;DHT22;4529;51.360;12.474;2023-06-14T23:02:09;16.30;99.90
8988;DHT22;4529;51.360;12.474;2023-06-14T23:07:13;16.30;99.90
8988;DHT22;4529;51.360;12.474;2023-06-14T23:12:16;16.40;99.90
8988;DHT22;4529;51.360;12.474;2023-06-14T23:17:19;16.60;99.90
8988;DHT22;4529;51.360;12.474;2023-06-14T23:22:23;16.60;99.90
8988;DHT22;4529;51.360;12.474;2023-06-14T23:27:26;16.70;99.90
8988;DHT22;4529;51.360;12.474;2023-06-14T23:32:30;16.70;99.90
8988;DHT22;4529;51.360;12.474;2023-06-14T23:37:33;16.70;99.90
8988;DHT22;4529;51.360;12.474;2023-06-14T23:42:37;16.70;99.90
8988;DHT22;4529;51.360;12.474;2023-06-14T23:47:40;16.80;99.90
8988;DHT22;4529;51.360;12.474;2023-06-14T23:52:44;16.70;99.90
8988;DHT22;4529;51.360;12.474;2023-06-14T23:57:47;16.70;99.90
